MDT,Max TemperatureF,Mean TemperatureF,Min TemperatureF,Max Dew PointF,MeanDew PointF,Min DewpointF,Max Humidity, Mean Humidity, Min Humidity, Max Sea Level PressureIn, Mean Sea Level PressureIn, Min Sea Level PressureIn, Max VisibilityMiles, Mean VisibilityMiles, Min VisibilityMiles, Max Wind SpeedMPH, Mean Wind SpeedMPH, Max Gust SpeedMPH,PrecipitationIn, CloudCover, Events, WindDirDegrees
2012-10-1,65,53,41,44,33,30,85,47,30,30.25,29.97,29.65,,,,18,8,34,0.01,,,226
2012-10-2,50,40,31,41,31,15,92,75,28,30.32,29.98,29.76,,,,12,5,21,0.06,,,193
2012-10-3,37,32,25,29,26,22,95,80,56,30.60,30.54,30.37,,,,4,2,,0.00,,,60
2012-10-4,44,30,16,23,17,11,94,67,26,30.58,30.51,30.43,,,,6,1,,0.00,,,347
2012-10-5,48,32,17,20,17,11,93,63,22,30.58,30.48,30.40,,,,4,2,,0.00,,,207
2012-10-6,58,42,25,29,23,20,83,56,27,30.45,30.34,30.22,,,,6,3,,0.00,,,210
2012-10-7,58,44,30,34,29,26,82,59,33,30.22,30.09,29.97,,,,8,4,,0.00,,,232
2012-10-8,45,38,30,39,35,30,96,89,76,30.15,30.06,29.99,,,,8,4,,0.06,,,48
2012-10-9,54,42,30,33,31,28,99,73,36,30.18,30.11,30.02,,,,10,3,20,0.00,,,236
2012-10-10,41,34,28,36,29,23,83,77,67,30.26,30.08,29.96,,,,14,6,22,0.01,,,60
2012-10-11,50,36,23,29,25,22,91,70,43,30.26,30.11,29.88,,,,9,5,,0.00,,,214
2012-10-12,52,41,30,34,30,27,88,65,42,29.87,29.74,29.65,,,,13,6,26,0.00,,,228
2012-10-13,54,48,41,39,35,31,82,66,41,30.03,29.89,29.77,,,,13,6,25,0.01,,,234
2012-10-14,55,48,40,40,37,35,88,67,50,30.03,29.85,29.71,,,,14,8,30,0.00,,,242
2012-10-15,56,50,43,40,34,26,84,58,32,29.76,29.68,29.46,,,,12,8,23,0.00,,,237
2012-10-16,50,44,37,40,31,16,91,64,39,29.74,29.42,29.22,,,,13,7,22,0.15,,,243
2012-10-17,42,36,30,19,12,7,53,37,24,30.28,30.03,29.78,,,,12,7,25,0.00,,,252
2012-10-18,45,36,28,32,21,15,89,58,40,30.26,30.14,29.86,,,,14,7,21,0.00,,,229
2012-10-19,48,41,34,38,35,32,94,81,57,29.81,29.60,29.45,,,,13,9,24,0.07,,,237
2012-10-20,34,30,26,33,28,24,96,92,82,29.79,29.58,29.44,,,,7,4,,0.31,,,216
2012-10-21,29,24,19,23,20,16,94,86,58,30.00,29.94,29.83,,,,5,2,,0.05,,,39
2012-10-22,27,24,21,21,19,14,89,81,55,30.03,29.98,29.93,,,,9,5,,0.00,,,50
2012-10-23,23,20,18,18,14,10,88,78,60,30.11,30.02,29.92,,,,7,6,,0.00,,,48
2012-10-24,26,17,8,16,11,5,90,76,48,30.35,30.25,30.12,,,,8,3,,0.00,,,52
2012-10-25,28,22,17,16,13,7,86,73,44,30.49,30.44,30.36,,,,6,4,,0.00,,,53
2012-10-26,28,22,16,17,15,13,90,80,55,30.43,30.32,30.19,,,,5,2,,0.00,,,69
2012-10-27,29,20,12,22,16,10,92,83,65,30.18,30.08,29.95,,,,5,2,,0.00,,,62
2012-10-28,41,30,20,29,25,17,92,76,58,29.93,29.82,29.77,,,,13,4,22,0.00,,,233
2012-10-29,41,34,30,33,29,26,87,79,68,29.89,29.82,29.75,,,,12,6,18,0.00,,,230
2012-10-30,43,35,27,35,29,23,92,76,56,30.06,29.89,29.83,,,,9,6,18,0.02,,,236
2012-10-31,31,28,24,26,23,21,88,84,77,30.12,30.04,29.92,,,,4,2,,0.10,,,81